Time;durP1;ratioP1;P1;durP2;ratioP2;P2;SDS_P1;SDS_P2;PMS_P1;PMS_P2;Temp;Humidity;BMP_temperature;BMP_pressure;BME280_temperature;BME280_humidity;BME280_pressure;Samples;Min_cycle;Max_cycle;Signal;HPM_P1;HPM_P2
2021/08/07 00:01:50;;;;;;;4.37;3.37;;;14.70;99.90;;;;;;5032723;28;20449;-68
2021/08/07 00:04:17;;;;;;;6.40;3.30;;;14.70;99.90;;;;;;5032332;28;20476;-69
2021/08/07 00:06:44;;;;;;;4.50;3.03;;;14.70;99.90;;;;;;5032547;28;20451;-69
2021/08/07 00:09:11;;;;;;;4.90;3.10;;;14.60;99.90;;;;;;5031922;28;20475;-68
2021/08/07 00:11:38;;;;;;;4.70;3.13;;;14.60;99.90;;;;;;5032389;28;20444;-68
2021/08/07 00:14:06;;;;;;;5.03;3.37;;;14.50;99.90;;;;;;5032698;28;20445;-69
2021/08/07 00:16:33;;;;;;;5.63;2.93;;;14.50;99.90;;;;;;5032002;28;20449;-69
2021/08/07 00:18:59;;;;;;;5.07;3.03;;;14.50;99.90;;;;;;5031992;28;20468;-67
2021/08/07 00:21:26;;;;;;;5.67;3.73;;;14.50;99.90;;;;;;5032146;28;20495;-68
2021/08/07 00:23:53;;;;;;;5.40;3.57;;;14.40;99.90;;;;;;5032052;28;20811;-68
2021/08/07 00:26:20;;;;;;;4.83;3.40;;;14.40;99.90;;;;;;5030486;28;20492;-68
2021/08/07 00:28:48;;;;;;;5.90;5.30;;;14.50;99.90;;;;;;5032018;28;20867;-69
2021/08/07 00:31:16;;;;;;;6.50;3.43;;;14.40;99.90;;;;;;5031425;28;20508;-68
2021/08/07 00:33:43;;;;;;;5.80;3.57;;;14.40;99.90;;;;;;5031664;28;20441;-69
2021/08/07 00:36:10;;;;;;;5.37;4.10;;;14.40;99.90;;;;;;5031488;28;20528;-69
2021/08/07 00:38:37;;;;;;;3.73;3.13;;;14.40;99.90;;;;;;5031681;28;20444;-68
2021/08/07 00:41:04;;;;;;;5.27;3.50;;;14.40;99.90;;;;;;5029928;28;20455;-68
2021/08/07 00:43:31;;;;;;;6.90;3.60;;;14.40;99.90;;;;;;5032120;28;20452;-69
2021/08/07 00:45:58;;;;;;;5.63;3.60;;;14.40;99.90;;;;;;5031409;28;20480;-68
2021/08/07 00:48:26;;;;;;;4.93;3.50;;;14.50;99.90;;;;;;5031739;28;20806;-67
2021/08/07 00:50:54;;;;;;;4.90;3.30;;;14.70;99.90;;;;;;5030897;28;20487;-68
2021/08/07 00:53:21;;;;;;;4.47;3.33;;;14.80;99.90;;;;;;5031682;28;20459;-68
2021/08/07 00:55:48;;;;;;;7.27;3.10;;;14.80;99.90;;;;;;5031347;28;20591;-68
2021/08/07 00:58:15;;;;;;;6.20;3.60;;;14.90;99.90;;;;;;5031776;28;20455;-68
2021/08/07 01:00:42;;;;;;;6.43;3.70;;;15.00;99.90;;;;;;5030707;28;20560;-68
2021/08/07 01:03:14;;;;;;;5.63;3.80;;;15.00;99.90;;;;;;5031438;28;20532;-68
2021/08/07 01:05:49;;;;;;;3.63;3.10;;;15.00;99.90;;;;;;5030615;28;20995;-68
2021/08/07 01:08:18;;;;;;;4.83;3.30;;;15.10;99.90;;;;;;5031162;28;20928;-68
2021/08/07 01:10:53;;;;;;;4.53;3.43;;;15.20;99.90;;;;;;5030259;28;20544;-69
2021/08/07 01:13:24;;;;;;;5.97;3.53;;;15.20;99.90;;;;;;5031216;28;20444;-69
2021/08/07 01:15:57;;;;;;;4.57;3.20;;;15.20;99.90;;;;;;5031080;28;20527;-68
2021/08/07 01:18:26;;;;;;;5.50;3.03;;;15.20;99.90;;;;;;5031146;28;20858;-68
2021/08/07 01:20:57;;;;;;;9.50;4.20;;;15.10;99.90;;;;;;5030147;28;20461;-68
2021/08/07 01:23:36;;;;;;;5.20;3.77;;;15.10;99.90;;;;;;5031019;28;20819;-67
2021/08/07 01:26:12;;;;;;;6.97;3.93;;;15.20;99.90;;;;;;5030449;28;20491;-68
2021/08/07 01:28:42;;;;;;;3.80;2.70;;;15.20;99.90;;;;;;5030690;28;20425;-69
2021/08/07 01:31:10;;;;;;;5.10;3.07;;;15.10;99.90;;;;;;5030234;28;20444;-68
2021/08/07 01:33:38;;;;;;;4.37;2.97;;;15.10;99.90;;;;;;5030617;28;20962;-69
2021/08/07 01:36:06;;;;;;;5.63;3.93;;;15.10;99.90;;;;;;5030433;28;20519;-69
2021/08/07 01:38:33;;;;;;;5.63;3.67;;;15.00;99.90;;;;;;5030439;28;20449;-69
2021/08/07 01:41:00;;;;;;;4.50;2.97;;;15.00;99.90;;;;;;5030043;28;20479;-68
2021/08/07 01:43:27;;;;;;;5.17;3.67;;;15.10;99.90;;;;;;5030998;28;20459;-68
2021/08/07 01:45:56;;;;;;;5.80;3.93;;;15.10;99.90;;;;;;5030210;28;20477;-67
2021/08/07 01:48:30;;;;;;;6.33;3.60;;;15.10;99.90;;;;;;5030426;28;20478;-68
2021/08/07 01:51:08;;;;;;;5.03;4.07;;;15.10;99.90;;;;;;5029691;28;20455;-67
2021/08/07 01:53:36;;;;;;;7.20;3.47;;;15.10;99.90;;;;;;5030395;28;20813;-68
2021/08/07 01:56:06;;;;;;;5.67;4.27;;;15.20;99.90;;;;;;5030085;28;21053;-67
2021/08/07 01:58:37;;;;;;;3.80;3.17;;;15.20;99.90;;;;;;5030119;28;20449;-67
2021/08/07 02:01:06;;;;;;;4.10;3.63;;;15.20;99.90;;;;;;5029636;28;20451;-67
2021/08/07 02:03:34;;;;;;;4.40;3.57;;;15.20;99.90;;;;;;5030220;28;20528;-67
2021/08/07 02:06:01;;;;;;;5.70;3.23;;;15.20;99.90;;;;;;5030109;28;20480;-67
2021/08/07 02:08:29;;;;;;;5.20;2.97;;;15.20;99.90;;;;;;5029927;28;20449;-67
2021/08/07 02:10:58;;;;;;;6.53;3.53;;;15.20;99.90;;;;;;5029300;28;20958;-68
2021/08/07 02:13:26;;;;;;;5.20;3.70;;;15.30;99.90;;;;;;5030551;28;20476;-67
2021/08/07 02:15:55;;;;;;;4.50;2.80;;;15.40;99.90;;;;;;5030111;28;20842;-67
2021/08/07 02:18:26;;;;;;;5.07;3.50;;;15.40;99.90;;;;;;5030399;28;20441;-68
2021/08/07 02:20:55;;;;;;;8.13;3.53;;;15.40;99.90;;;;;;5029056;28;20481;-68
2021/08/07 02:23:22;;;;;;;4.60;3.10;;;15.40;99.90;;;;;;5030234;28;20448;-67
2021/08/07 02:25:54;;;;;;;5.77;3.80;;;15.50;99.90;;;;;;5029451;28;20480;-67
2021/08/07 02:28:23;;;;;;;5.10;3.73;;;15.60;99.90;;;;;;5030051;28;20445;-68
2021/08/07 02:30:51;;;;;;;6.10;3.23;;;15.50;99.90;;;;;;5029262;28;20469;-68
2021/08/07 02:33:21;;;;;;;4.40;2.93;;;15.60;99.90;;;;;;5029918;28;20449;-68
2021/08/07 02:35:50;;;;;;;4.70;3.30;;;15.60;99.90;;;;;;5029423;28;20456;-67
2021/08/07 02:38:18;;;;;;;3.90;2.83;;;15.60;99.90;;;;;;5030595;28;20458;-67
2021/08/07 02:40:45;;;;;;;4.30;3.33;;;15.60;99.90;;;;;;5028982;28;20473;-67
2021/08/07 02:43:15;;;;;;;4.73;3.50;;;15.50;99.90;;;;;;5029930;28;20475;-68
2021/08/07 02:45:42;;;;;;;5.03;3.50;;;15.60;99.90;;;;;;5028960;28;21010;-68
2021/08/07 02:48:10;;;;;;;5.37;3.60;;;15.60;99.90;;;;;;5030779;28;20448;-67
2021/08/07 02:50:37;;;;;;;5.17;2.77;;;15.60;99.90;;;;;;5035345;28;20468;-67
2021/08/07 02:53:05;;;;;;;5.50;3.33;;;15.60;99.90;;;;;;5036287;28;20540;-67
2021/08/07 02:55:32;;;;;;;5.60;2.93;;;15.50;99.90;;;;;;5036122;28;20456;-68
2021/08/07 02:58:00;;;;;;;6.37;3.57;;;15.50;99.90;;;;;;5036318;28;20867;-67
2021/08/07 03:00:27;;;;;;;3.70;3.30;;;15.50;99.90;;;;;;5035291;28;21036;-67
2021/08/07 03:02:53;;;;;;;4.90;3.50;;;15.50;99.90;;;;;;5036190;28;20827;-68
2021/08/07 03:05:22;;;;;;;5.40;3.80;;;15.60;99.90;;;;;;5035688;28;20567;-67
2021/08/07 03:07:49;;;;;;;4.10;3.20;;;15.60;99.90;;;;;;5036339;28;20472;-68
2021/08/07 03:10:17;;;;;;;4.07;2.93;;;15.60;99.90;;;;;;5035223;28;20556;-67
2021/08/07 03:12:46;;;;;;;6.13;4.10;;;15.60;99.90;;;;;;5035897;28;20479;-67
2021/08/07 03:15:14;;;;;;;8.13;4.37;;;15.60;99.90;;;;;;5035577;28;20452;-67
2021/08/07 03:17:41;;;;;;;6.00;3.37;;;15.50;99.90;;;;;;5036030;28;20520;-67
2021/08/07 03:20:09;;;;;;;4.73;3.50;;;15.50;99.90;;;;;;5035274;28;20471;-67
2021/08/07 03:22:36;;;;;;;6.30;4.00;;;15.50;99.90;;;;;;5036347;28;20460;-68
2021/08/07 03:25:03;;;;;;;5.80;3.90;;;15.50;99.90;;;;;;5035225;28;20463;-67
2021/08/07 03:27:32;;;;;;;6.00;4.50;;;15.40;99.90;;;;;;5035967;28;20453;-67
2021/08/07 03:29:59;;;;;;;5.57;3.80;;;15.30;99.90;;;;;;5034955;28;20986;-68
2021/08/07 03:32:25;;;;;;;5.80;3.97;;;15.20;99.90;;;;;;5036233;28;20445;-67
2021/08/07 03:34:52;;;;;;;6.37;4.27;;;15.10;99.90;;;;;;5035708;28;20448;-68
2021/08/07 03:37:19;;;;;;;6.73;4.20;;;15.00;99.90;;;;;;5036048;28;20445;-67
2021/08/07 03:39:46;;;;;;;7.73;5.00;;;14.90;99.90;;;;;;5035214;28;20483;-67
2021/08/07 03:42:13;;;;;;;7.77;4.50;;;14.90;99.90;;;;;;5035690;28;20440;-70
2021/08/07 03:44:41;;;;;;;7.77;4.50;;;14.90;99.90;;;;;;5035725;28;20463;-67
2021/08/07 03:47:08;;;;;;;6.67;4.80;;;14.90;99.90;;;;;;5035787;28;20488;-67
2021/08/07 03:49:34;;;;;;;8.43;6.37;;;14.90;99.90;;;;;;5035039;28;20918;-68
2021/08/07 03:52:01;;;;;;;8.00;4.60;;;14.80;99.90;;;;;;5035827;28;20459;-67
2021/08/07 03:54:28;;;;;;;7.47;5.13;;;14.70;99.90;;;;;;5035264;28;20441;-68
2021/08/07 03:56:55;;;;;;;9.60;5.87;;;14.60;99.90;;;;;;5035465;28;20535;-69
2021/08/07 03:59:22;;;;;;;6.80;4.97;;;14.60;99.90;;;;;;5034647;28;20468;-68
2021/08/07 04:01:50;;;;;;;6.97;4.97;;;14.50;99.90;;;;;;5032591;28;20935;-68
2021/08/07 04:04:17;;;;;;;9.77;4.60;;;14.50;99.90;;;;;;5032134;28;20536;-69
2021/08/07 04:06:44;;;;;;;8.00;4.63;;;14.50;99.90;;;;;;5032371;28;20477;-68
2021/08/07 04:09:10;;;;;;;9.27;4.60;;;14.50;99.90;;;;;;5031592;28;20895;-68
2021/08/07 04:11:37;;;;;;;5.73;4.30;;;14.40;99.90;;;;;;5032489;28;20451;-69
2021/08/07 04:14:05;;;;;;;8.07;4.67;;;14.40;99.90;;;;;;5032679;28;20444;-68
2021/08/07 04:16:32;;;;;;;6.57;4.73;;;14.30;99.90;;;;;;5032322;28;20452;-68
2021/08/07 04:19:01;;;;;;;7.20;4.67;;;14.40;99.90;;;;;;5031828;28;20469;-68
2021/08/07 04:21:27;;;;;;;10.37;5.53;;;14.40;99.90;;;;;;5032115;28;20447;-68
2021/08/07 04:23:54;;;;;;;6.00;4.63;;;14.40;99.90;;;;;;5032431;28;20455;-68
2021/08/07 04:26:21;;;;;;;8.10;5.37;;;14.40;99.90;;;;;;5031588;28;20496;-68
2021/08/07 04:28:48;;;;;;;7.30;5.17;;;14.40;99.90;;;;;;5032072;28;20447;-68
2021/08/07 04:31:15;;;;;;;7.10;4.80;;;14.40;99.90;;;;;;5031669;28;20468;-68
2021/08/07 04:33:41;;;;;;;7.07;5.13;;;14.50;99.90;;;;;;5031825;28;20457;-68
2021/08/07 04:36:10;;;;;;;6.40;5.03;;;14.50;99.90;;;;;;5031320;28;20451;-68
2021/08/07 04:38:37;;;;;;;9.07;5.23;;;14.50;99.90;;;;;;5031849;28;20455;-68
2021/08/07 04:41:03;;;;;;;6.70;5.20;;;14.50;99.90;;;;;;5031059;28;20544;-68
2021/08/07 04:43:31;;;;;;;8.83;4.57;;;14.50;99.90;;;;;;5031761;28;20445;-68
2021/08/07 04:45:58;;;;;;;8.70;5.90;;;14.60;99.90;;;;;;5031495;28;20481;-68
2021/08/07 04:48:25;;;;;;;7.73;5.50;;;14.60;99.90;;;;;;5031574;28;20463;-68
2021/08/07 04:50:52;;;;;;;5.90;4.60;;;14.50;99.90;;;;;;5030638;28;20479;-68
2021/08/07 04:53:20;;;;;;;4.80;4.20;;;14.50;99.90;;;;;;5031726;28;20449;-68
2021/08/07 04:55:47;;;;;;;7.40;4.73;;;14.50;99.90;;;;;;5031278;28;20444;-68
2021/08/07 04:58:14;;;;;;;5.83;4.40;;;14.60;99.90;;;;;;5031413;28;20441;-68
2021/08/07 05:00:41;;;;;;;4.90;4.20;;;14.80;99.90;;;;;;5030643;28;20838;-68
2021/08/07 05:03:08;;;;;;;9.80;4.43;;;14.90;99.90;;;;;;5031197;28;20527;-68
2021/08/07 05:05:35;;;;;;;8.53;4.10;;;15.00;99.90;;;;;;5030864;28;20818;-68
2021/08/07 05:08:02;;;;;;;6.93;3.70;;;15.20;99.90;;;;;;5031378;28;20455;-68
2021/08/07 05:10:30;;;;;;;5.77;4.43;;;15.20;99.90;;;;;;5030541;28;20475;-67
2021/08/07 05:12:57;;;;;;;5.77;3.77;;;15.40;99.90;;;;;;5030530;28;20975;-67
2021/08/07 05:15:24;;;;;;;5.07;3.73;;;15.50;99.90;;;;;;5030982;28;20437;-68
2021/08/07 05:17:51;;;;;;;4.77;3.53;;;15.80;99.90;;;;;;5030849;28;20455;-68
2021/08/07 05:20:17;;;;;;;4.03;3.37;;;15.90;99.90;;;;;;5030147;28;20556;-68
2021/08/07 05:22:45;;;;;;;4.30;3.33;;;16.00;99.90;;;;;;5031104;28;20539;-68
2021/08/07 05:25:14;;;;;;;6.87;4.73;;;16.10;99.90;;;;;;5030933;28;20991;-68
2021/08/07 05:27:43;;;;;;;6.07;3.10;;;16.10;99.90;;;;;;5031255;28;20511;-68
2021/08/07 05:30:11;;;;;;;5.50;4.20;;;16.20;99.90;;;;;;5030578;28;20556;-68
2021/08/07 05:32:37;;;;;;;5.13;3.40;;;16.30;99.90;;;;;;5031840;28;20452;-68
2021/08/07 05:35:05;;;;;;;8.17;3.80;;;16.40;99.90;;;;;;5031211;28;20451;-68
2021/08/07 05:37:32;;;;;;;5.97;3.80;;;16.50;99.90;;;;;;5031162;28;20519;-68
2021/08/07 05:39:59;;;;;;;5.87;4.00;;;16.60;99.90;;;;;;5030061;28;20531;-68
2021/08/07 05:42:26;;;;;;;6.90;3.50;;;16.80;99.90;;;;;;5030507;28;20489;-68
2021/08/07 05:44:54;;;;;;;4.67;3.50;;;16.80;99.90;;;;;;5030372;28;20455;-68
2021/08/07 05:47:21;;;;;;;5.83;3.20;;;16.90;99.90;;;;;;5030791;28;20485;-68
2021/08/07 05:49:48;;;;;;;8.50;3.83;;;16.80;99.90;;;;;;5029925;28;20557;-68
2021/08/07 05:52:15;;;;;;;4.80;3.00;;;16.70;99.90;;;;;;5030805;28;20437;-68
2021/08/07 05:54:41;;;;;;;6.37;3.70;;;16.90;99.90;;;;;;5030277;28;20449;-68
2021/08/07 05:57:09;;;;;;;6.77;3.70;;;17.30;99.90;;;;;;5030197;28;20552;-69
2021/08/07 05:59:35;;;;;;;5.47;3.53;;;17.60;99.90;;;;;;5029516;28;20478;-68
2021/08/07 06:02:04;;;;;;;4.93;3.17;;;18.00;99.90;;;;;;5030116;28;20449;-69
2021/08/07 06:04:31;;;;;;;5.10;3.47;;;18.20;99.90;;;;;;5029865;28;20449;-68
2021/08/07 06:06:58;;;;;;;5.10;3.13;;;18.50;99.90;;;;;;5030026;28;20477;-68
2021/08/07 06:09:25;;;;;;;5.20;3.10;;;18.70;99.90;;;;;;5029209;28;20473;-68
2021/08/07 06:11:52;;;;;;;5.60;3.80;;;18.90;99.90;;;;;;5030224;28;20460;-68
2021/08/07 06:14:19;;;;;;;5.30;3.00;;;19.00;99.90;;;;;;5029718;28;20524;-68
2021/08/07 06:16:46;;;;;;;4.73;3.10;;;19.10;99.90;;;;;;5029990;28;20927;-68
2021/08/07 06:19:14;;;;;;;6.13;3.00;;;19.20;99.90;;;;;;5029263;28;20461;-69
2021/08/07 06:21:41;;;;;;;5.20;3.00;;;19.20;99.90;;;;;;5029837;28;20939;-69
2021/08/07 06:24:08;;;;;;;4.30;2.50;;;19.40;99.90;;;;;;5029308;28;20870;-68
2021/08/07 06:26:35;;;;;;;3.47;2.70;;;19.50;99.90;;;;;;5029128;28;20567;-68
2021/08/07 06:29:06;;;;;;;3.93;2.50;;;19.60;99.90;;;;;;5029323;28;20836;-68
2021/08/07 06:31:33;;;;;;;3.83;2.60;;;19.70;99.90;;;;;;5029733;28;20913;-69
2021/08/07 06:34:00;;;;;;;4.83;3.20;;;19.90;99.90;;;;;;5029808;28;20492;-68
2021/08/07 06:36:28;;;;;;;4.10;2.10;;;20.10;99.90;;;;;;5029401;28;20519;-68
2021/08/07 06:38:55;;;;;;;4.03;2.40;;;20.20;99.90;;;;;;5029612;28;20503;-69
2021/08/07 06:41:22;;;;;;;5.80;2.70;;;20.40;99.90;;;;;;5027513;28;21015;-69
2021/08/07 06:43:49;;;;;;;4.90;2.47;;;20.40;99.90;;;;;;5029790;28;20445;-69
2021/08/07 06:46:16;;;;;;;3.77;2.43;;;20.30;99.90;;;;;;5029348;28;20456;-69
2021/08/07 06:48:43;;;;;;;5.20;2.40;;;20.30;99.90;;;;;;5030240;28;20453;-70
2021/08/07 06:51:10;;;;;;;6.13;2.90;;;20.30;99.90;;;;;;5028872;28;20883;-69
2021/08/07 06:53:40;;;;;;;3.83;2.10;;;20.30;99.90;;;;;;5029244;28;20448;-67
2021/08/07 06:56:07;;;;;;;4.57;2.33;;;20.30;99.90;;;;;;5029010;28;20463;-68
2021/08/07 06:58:34;;;;;;;4.73;2.73;;;20.30;99.90;;;;;;5029426;28;20457;-68
2021/08/07 07:01:01;;;;;;;5.13;2.57;;;20.30;99.90;;;;;;5028600;28;20445;-68
2021/08/07 07:03:27;;;;;;;4.63;2.10;;;20.40;99.90;;;;;;5029710;28;20454;-68
2021/08/07 07:05:54;;;;;;;4.27;2.33;;;20.40;99.90;;;;;;5028750;28;20451;-68
2021/08/07 07:08:21;;;;;;;8.37;2.80;;;20.40;99.90;;;;;;5029366;28;20484;-68
2021/08/07 07:10:50;;;;;;;4.23;2.20;;;20.40;99.90;;;;;;5028543;28;20472;-68
2021/08/07 07:13:17;;;;;;;4.00;2.27;;;20.40;99.90;;;;;;5029661;28;20471;-68
2021/08/07 07:15:43;;;;;;;4.67;1.83;;;20.40;99.90;;;;;;5029383;28;20670;-68
2021/08/07 07:18:10;;;;;;;3.50;2.37;;;20.40;99.90;;;;;;5029272;28;20447;-68
2021/08/07 07:20:37;;;;;;;4.63;2.00;;;20.50;99.90;;;;;;5028518;28;20565;-69
2021/08/07 07:23:04;;;;;;;3.83;1.70;;;20.80;99.90;;;;;;5029243;28;20457;-68
2021/08/07 07:25:32;;;;;;;3.50;1.60;;;21.20;99.90;;;;;;5028959;28;20848;-68
2021/08/07 07:28:01;;;;;;;3.90;1.97;;;21.50;99.90;;;;;;5029391;28;20487;-69
2021/08/07 07:30:30;;;;;;;4.50;1.90;;;21.60;99.90;;;;;;5028142;28;20556;-68
2021/08/07 07:32:57;;;;;;;4.63;1.90;;;21.50;99.90;;;;;;5029061;28;20460;-68
2021/08/07 07:35:24;;;;;;;4.20;2.10;;;21.50;99.90;;;;;;5030674;28;20478;-69
2021/08/07 07:37:51;;;;;;;4.70;2.20;;;21.60;99.90;;;;;;5033055;28;20459;-68
2021/08/07 07:40:17;;;;;;;3.10;1.77;;;21.50;99.90;;;;;;5032323;28;20572;-68
2021/08/07 07:42:44;;;;;;;5.80;2.47;;;21.40;99.90;;;;;;5032705;28;20449;-68
2021/08/07 07:45:13;;;;;;;3.90;1.90;;;21.40;99.90;;;;;;5032373;28;20939;-68
2021/08/07 07:47:40;;;;;;;3.67;2.30;;;21.40;99.90;;;;;;5032731;28;20476;-68
2021/08/07 07:50:07;;;;;;;3.97;2.00;;;21.50;99.90;;;;;;5032229;28;20480;-67
2021/08/07 07:52:34;;;;;;;4.50;1.97;;;21.60;99.90;;;;;;5032518;28;20448;-68
2021/08/07 07:55:01;;;;;;;6.70;2.40;;;21.70;99.90;;;;;;5032379;28;20448;-68
2021/08/07 07:57:28;;;;;;;3.70;1.90;;;21.60;99.90;;;;;;5032686;28;20537;-68
2021/08/07 07:59:55;;;;;;;7.30;2.40;;;21.80;99.90;;;;;;5031778;28;20464;-68
2021/08/07 08:02:23;;;;;;;4.85;2.60;;;22.00;99.90;;;;;;5031688;28;20473;-68
2021/08/07 08:04:50;;;;;;;4.23;2.30;;;22.10;99.90;;;;;;5031846;28;20206;-69
2021/08/07 08:07:16;;;;;;;3.10;1.83;;;22.20;99.90;;;;;;5032437;28;20485;-68
2021/08/07 08:09:43;;;;;;;5.17;2.47;;;22.50;99.90;;;;;;5031511;28;20469;-68
2021/08/07 08:12:10;;;;;;;4.47;1.93;;;23.00;99.90;;;;;;5032357;28;20444;-68
2021/08/07 08:14:37;;;;;;;4.93;2.40;;;23.40;99.90;;;;;;5031763;28;20453;-69
2021/08/07 08:17:04;;;;;;;3.77;2.13;;;23.80;99.90;;;;;;5032401;28;21090;-68
2021/08/07 08:19:32;;;;;;;3.90;2.03;;;23.90;99.90;;;;;;5031435;28;20841;-68
2021/08/07 08:21:59;;;;;;;4.77;1.73;;;24.10;99.90;;;;;;5032336;28;20543;-68
2021/08/07 08:24:26;;;;;;;4.00;1.80;;;24.30;99.90;;;;;;5031891;28;20445;-68
2021/08/07 08:26:53;;;;;;;3.67;1.90;;;24.40;99.90;;;;;;5032234;28;20435;-69
2021/08/07 08:29:20;;;;;;;7.97;2.70;;;24.40;99.90;;;;;;5031280;28;20921;-68
2021/08/07 08:31:47;;;;;;;5.20;2.30;;;24.60;99.90;;;;;;5032135;28;20452;-67
2021/08/07 08:34:13;;;;;;;4.57;2.03;;;24.70;99.90;;;;;;5032033;28;20453;-68
2021/08/07 08:36:42;;;;;;;5.80;2.40;;;25.00;99.90;;;;;;5032171;28;20651;-67
2021/08/07 08:39:09;;;;;;;3.73;2.20;;;24.80;99.90;;;;;;5030861;28;20646;-68
2021/08/07 08:41:36;;;;;;;3.43;1.97;;;25.00;99.90;;;;;;5031511;28;20457;-69
2021/08/07 08:44:04;;;;;;;4.30;2.20;;;24.70;99.90;;;;;;5031882;28;20467;-69
2021/08/07 08:46:31;;;;;;;3.00;1.63;;;24.90;99.90;;;;;;5030701;28;20467;-68
2021/08/07 08:48:59;;;;;;;3.43;1.63;;;25.10;99.90;;;;;;5031258;28;20599;-68
2021/08/07 08:51:29;;;;;;;4.47;1.70;;;25.20;99.90;;;;;;5031845;28;20463;-69
2021/08/07 08:53:57;;;;;;;4.43;1.97;;;25.50;99.90;;;;;;5031672;28;20476;-69
2021/08/07 08:56:25;;;;;;;4.23;2.10;;;25.50;99.90;;;;;;5031062;28;20457;-68
2021/08/07 08:58:52;;;;;;;4.60;2.20;;;25.60;99.90;;;;;;5031243;28;20468;-67
2021/08/07 09:01:19;;;;;;;3.10;1.60;;;25.60;99.90;;;;;;5031010;28;20543;-67
2021/08/07 09:03:48;;;;;;;3.60;1.90;;;25.80;99.90;;;;;;5031412;28;20453;-68
2021/08/07 09:06:15;;;;;;;3.67;1.77;;;26.10;99.90;;;;;;5031270;28;20477;-68
2021/08/07 09:09:03;;;;;;;3.60;1.63;;;26.10;99.90;;;;;;5030808;28;20476;-67
2021/08/07 09:11:30;;;;;;;3.53;1.70;;;26.10;99.90;;;;;;5030944;28;21030;-67
2021/08/07 09:14:22;;;;;;;2.73;1.80;;;25.90;99.90;;;;;;5031471;28;20449;-68
2021/08/07 09:17:11;;;;;;;3.13;1.77;;;25.80;99.90;;;;;;5031047;28;20455;-69
2021/08/07 09:19:50;;;;;;;3.33;1.70;;;25.70;99.90;;;;;;5030150;28;20817;-68
2021/08/07 09:22:18;;;;;;;4.13;1.67;;;25.60;99.90;;;;;;5030971;28;21005;-68
2021/08/07 09:24:59;;;;;;;5.60;2.07;;;25.40;99.90;;;;;;5030434;28;20563;-68
2021/08/07 09:27:31;;;;;;;5.43;1.83;;;25.50;99.90;;;;;;5030478;28;20486;-68
2021/08/07 09:29:59;;;;;;;2.80;1.60;;;25.60;99.90;;;;;;5030058;28;20497;-68
2021/08/07 09:32:26;;;;;;;3.00;1.50;;;25.70;99.90;;;;;;5030959;28;20472;-68
2021/08/07 09:35:07;;;;;;;3.50;1.57;;;25.80;99.90;;;;;;5030802;28;20441;-68
2021/08/07 09:37:35;;;;;;;3.47;1.90;;;26.00;99.90;;;;;;5030623;28;20465;-68
2021/08/07 09:40:05;;;;;;;4.50;1.83;;;26.10;99.90;;;;;;5029669;28;21401;-68
2021/08/07 09:42:33;;;;;;;3.60;1.67;;;26.20;99.90;;;;;;5030696;28;20437;-69
2021/08/07 09:45:01;;;;;;;2.57;1.60;;;26.20;99.90;;;;;;5030397;28;20491;-68
2021/08/07 09:47:28;;;;;;;4.60;1.80;;;26.20;99.90;;;;;;5030519;28;20563;-68
2021/08/07 09:49:55;;;;;;;4.27;1.90;;;25.80;99.90;;;;;;5029582;28;20479;-68
2021/08/07 09:52:22;;;;;;;3.63;1.67;;;25.80;99.90;;;;;;5030215;28;21026;-68
2021/08/07 09:54:49;;;;;;;2.80;1.67;;;25.50;99.90;;;;;;5029894;28;20536;-68
2021/08/07 09:57:35;;;;;;;4.27;1.90;;;25.30;99.90;;;;;;5030261;28;20540;-68
2021/08/07 10:00:02;;;;;;;4.80;2.10;;;24.60;99.90;;;;;;5029555;28;20476;-67
2021/08/07 10:02:31;;;;;;;7.17;2.00;;;24.20;99.90;;;;;;5030214;28;20448;-68
2021/08/07 10:04:58;;;;;;;3.27;1.80;;;23.80;99.90;;;;;;5029998;28;20479;-68
2021/08/07 10:07:25;;;;;;;3.40;1.50;;;23.50;99.90;;;;;;5030064;28;20898;-68
2021/08/07 10:09:53;;;;;;;4.20;1.97;;;23.20;99.90;;;;;;5029638;28;20475;-68
2021/08/07 10:12:20;;;;;;;5.30;2.13;;;22.90;99.90;;;;;;5030622;28;20444;-68
2021/08/07 10:14:50;;;;;;;5.37;2.10;;;22.50;99.90;;;;;;5030443;28;20459;-68
2021/08/07 10:17:19;;;;;;;3.47;1.90;;;22.20;99.90;;;;;;5030022;28;21149;-68
2021/08/07 10:19:47;;;;;;;6.07;2.57;;;21.80;99.90;;;;;;5029166;28;20476;-68
2021/08/07 10:22:19;;;;;;;4.17;2.47;;;21.30;99.90;;;;;;5030044;28;20452;-68
2021/08/07 10:24:47;;;;;;;5.40;3.07;;;20.90;99.90;;;;;;5029660;28;20555;-68
2021/08/07 10:27:17;;;;;;;4.67;2.83;;;20.60;99.90;;;;;;5029910;28;21288;-67
2021/08/07 10:29:45;;;;;;;4.20;2.53;;;20.20;99.90;;;;;;5028807;28;21041;-69
2021/08/07 10:32:14;;;;;;;5.57;3.20;;;20.00;99.90;;;;;;5030153;28;20455;-69
2021/08/07 10:34:46;;;;;;;5.90;2.63;;;19.90;99.90;;;;;;5029649;28;20460;-69
2021/08/07 10:37:14;;;;;;;5.10;2.77;;;19.70;99.90;;;;;;5029828;28;20449;-68
2021/08/07 10:39:41;;;;;;;6.20;3.20;;;19.60;99.90;;;;;;5028945;28;20461;-69
2021/08/07 10:42:09;;;;;;;5.90;3.00;;;19.40;99.90;;;;;;5029769;28;20613;-68
2021/08/07 10:44:37;;;;;;;4.03;2.87;;;19.30;99.90;;;;;;5029268;28;20451;-68
2021/08/07 10:47:04;;;;;;;5.40;3.03;;;19.10;99.90;;;;;;5029971;28;20463;-68
2021/08/07 10:49:39;;;;;;;6.83;3.40;;;19.10;99.90;;;;;;5029089;28;20488;-68
2021/08/07 10:52:37;;;;;;;6.60;2.90;;;19.10;99.90;;;;;;5029659;28;20452;-68
2021/08/07 10:55:04;;;;;;;4.73;3.03;;;19.00;99.90;;;;;;5029727;28;20433;-68
2021/08/07 10:57:34;;;;;;;6.43;3.47;;;18.90;99.90;;;;;;5030160;28;20451;-68
2021/08/07 11:00:01;;;;;;;7.40;3.20;;;18.90;99.90;;;;;;5029501;28;20471;-69
2021/08/07 11:02:29;;;;;;;5.47;2.70;;;18.90;99.90;;;;;;5030136;28;20514;-68
2021/08/07 11:04:57;;;;;;;6.00;3.17;;;18.80;99.90;;;;;;5029487;28;20536;-69
2021/08/07 11:07:24;;;;;;;4.53;2.43;;;18.70;99.90;;;;;;5030002;28;20445;-69
2021/08/07 11:10:07;;;;;;;5.00;3.13;;;18.60;99.90;;;;;;5032328;28;20580;-69
2021/08/07 11:12:35;;;;;;;4.53;3.10;;;18.50;99.90;;;;;;5036803;28;21019;-68
2021/08/07 11:15:09;;;;;;;7.00;3.33;;;18.30;99.90;;;;;;5035138;28;20450;-69
2021/08/07 11:17:49;;;;;;;5.07;3.60;;;18.20;99.90;;;;;;5034829;28;20520;-69
2021/08/07 11:20:43;;;;;;;5.70;3.97;;;18.20;99.90;;;;;;5032957;28;20464;-68
2021/08/07 11:23:13;;;;;;;8.87;5.33;;;18.20;99.90;;;;;;5033645;28;20832;-68
2021/08/07 11:26:03;;;;;;;7.47;4.07;;;18.30;99.90;;;;;;5033022;28;20462;-69
2021/08/07 11:28:31;;;;;;;7.37;4.80;;;18.30;99.90;;;;;;5032857;28;20496;-69
2021/08/07 11:31:22;;;;;;;9.70;4.27;;;18.40;99.90;;;;;;5032188;28;20445;-69
2021/08/07 11:34:24;;;;;;;7.57;5.50;;;18.40;99.90;;;;;;5033156;28;20449;-69
2021/08/07 11:37:21;;;;;;;6.13;3.70;;;18.50;99.90;;;;;;5033329;28;20539;-70
2021/08/07 11:40:09;;;;;;;6.00;4.27;;;18.50;99.90;;;;;;4997050;28;20485;-69
2021/08/07 11:42:38;;;;;;;6.07;3.73;;;18.50;99.90;;;;;;5032859;28;20441;-69
2021/08/07 11:45:06;;;;;;;7.70;3.97;;;18.40;99.90;;;;;;5032651;28;20449;-69
2021/08/07 11:47:33;;;;;;;6.70;4.10;;;18.30;99.90;;;;;;5033201;28;20445;-69
2021/08/07 11:50:06;;;;;;;4.40;3.60;;;18.20;99.90;;;;;;5032096;28;20497;-69
2021/08/07 11:52:35;;;;;;;5.40;4.07;;;18.20;99.90;;;;;;5032974;28;20441;-67
2021/08/07 11:55:04;;;;;;;6.27;4.10;;;18.30;99.90;;;;;;5032376;28;21159;-68
2021/08/07 11:57:31;;;;;;;4.50;3.80;;;18.20;99.90;;;;;;5032662;28;20893;-68
2021/08/07 12:00:23;;;;;;;6.63;5.20;;;18.30;99.90;;;;;;5031701;28;20453;-68
2021/08/07 12:03:03;;;;;;;7.23;4.07;;;18.30;99.90;;;;;;5032727;28;20491;-68
2021/08/07 12:05:31;;;;;;;5.90;4.47;;;18.40;99.90;;;;;;5032374;28;20436;-68
2021/08/07 12:08:07;;;;;;;5.67;3.57;;;18.50;99.90;;;;;;5032391;28;20448;-69
2021/08/07 12:10:36;;;;;;;7.73;4.07;;;18.60;99.90;;;;;;5031524;28;20559;-69
2021/08/07 12:13:03;;;;;;;4.80;3.77;;;18.60;99.90;;;;;;5032381;28;20932;-68
2021/08/07 12:15:31;;;;;;;6.37;4.00;;;18.70;99.90;;;;;;5031875;28;20447;-69
2021/08/07 12:18:00;;;;;;;10.93;4.80;;;18.80;99.90;;;;;;5032342;28;20456;-68
2021/08/07 12:20:28;;;;;;;7.57;3.90;;;18.80;99.90;;;;;;5030977;28;20498;-69
2021/08/07 12:22:57;;;;;;;5.30;4.20;;;18.80;99.90;;;;;;5030758;28;20460;-69
2021/08/07 12:25:27;;;;;;;5.27;4.00;;;18.70;99.90;;;;;;5031426;28;20452;-69
2021/08/07 12:28:12;;;;;;;8.30;4.10;;;18.70;99.90;;;;;;5032190;28;20823;-68
2021/08/07 12:30:52;;;;;;;4.90;4.17;;;18.60;99.90;;;;;;5031022;28;20465;-69
2021/08/07 12:33:21;;;;;;;6.73;4.80;;;18.70;99.90;;;;;;5031905;28;20433;-68
2021/08/07 12:35:48;;;;;;;4.70;3.40;;;18.80;99.90;;;;;;5031649;28;20453;-68
2021/08/07 12:38:17;;;;;;;4.60;3.50;;;18.70;99.90;;;;;;5031850;28;20532;-69
2021/08/07 12:40:47;;;;;;;4.67;3.83;;;18.70;99.90;;;;;;5029813;28;20560;-69
2021/08/07 12:43:14;;;;;;;6.03;4.17;;;18.70;99.90;;;;;;5031849;28;20539;-68
2021/08/07 12:45:41;;;;;;;5.37;3.47;;;18.60;99.90;;;;;;5031620;28;20893;-67
2021/08/07 12:48:08;;;;;;;4.43;3.37;;;18.50;99.90;;;;;;5032104;28;20449;-68
2021/08/07 12:50:35;;;;;;;5.50;4.23;;;18.50;99.90;;;;;;5030964;28;20660;-68
2021/08/07 12:53:04;;;;;;;7.03;4.07;;;18.40;99.90;;;;;;5031803;28;20460;-69
2021/08/07 12:55:33;;;;;;;6.50;4.50;;;18.40;99.90;;;;;;5031640;28;20444;-67
2021/08/07 12:58:15;;;;;;;7.53;3.53;;;18.40;99.90;;;;;;5031820;28;20452;-68